Airfield :
LOGIN :

Register | Disclaimer

   EN    FR    IT 

 










Legend :    VFR   Marginal VFR   IFR   Intensive IFR   Very Intensive IFR
Visi :
Ceiling :
>= 8 km
>= 3000ft
5 to 8 km
1000 to 3000 ft
1500m to 5 km
500 to 1000 ft
800 to 1500m
200 to 500 ft
< 800m
< 200 ft
Symbols :   Thunderstorms  Fog  Heavy snow  Heavy precipitations  Wind > 20 kt
SIGMETs :     Misc.  Thunderstorms  Icing  Turbulence  Mountain Waves  Volcanic Ashes






- Airport Elevation : 93 ft
- IATA code : HDF


EDAH - Heringsdorf

CURRENT METAR :
  • 282120Z AUTO 11011KT 9999 // FEW035/// SCT120/// 02/00 Q1018

EXPIRED METARs :
  • 282050Z AUTO 10011KT 9999 // SCT130/// 02/00 Q1018
  • 282020Z AUTO 11012KT 9999 // BKN130/// 02/00 Q1018
  • 281950Z AUTO 11012KT 9999 // FEW033/// BKN130/// 02/00 Q1018
  • 281920Z AUTO 11011KT 9999 // SCT033/// BKN130/// 02/00 Q1018
  • 281850Z AUTO 11011KT 9999 // FEW034/// BKN140/// 02/00 Q1018

TAF TAF EDAH
Valid from the 28 at 15:00 until the 29 at 00:00 UTC


281400Z 2815/2824 11011KT CAVOK
PROB40
TEMPO 2817/2820 BKN006
BECMG 2821/2823 BKN013



MET'MAP, your aeronautical weather chart ! - Copyright ORBIFLY December 2007 - Disclaimer

ORBIFLY MET'MAP TEAM :

Programming & Development : Alexandra Zaïnal
Original concept : Baudouin d'Aumeries
Technical & hardware support : Manuel Goepfert
Assistance : Marc-Olivier Méhu




SOURCES & CREDITS :

   NOAA